sensor_id;sensor_type;location;lat;lon;timestamp;pressure;altitude;pressure_sealevel;temperature;humidity
19624;BME280;9959;49.798;9.928;2023-10-08T00:01:10;100229.72;;;17.11;76.18
19624;BME280;9959;49.798;9.928;2023-10-08T00:03:39;100223.41;;;17.22;75.24
19624;BME280;9959;49.798;9.928;2023-10-08T00:06:07;100223.56;;;17.04;76.65
19624;BME280;9959;49.798;9.928;2023-10-08T00:08:39;100228.22;;;16.92;77.58
19624;BME280;9959;49.798;9.928;2023-10-08T00:11:06;100217.09;;;16.94;77.72
19624;BME280;9959;49.798;9.928;2023-10-08T00:13:37;100230.00;;;16.86;78.45
19624;BME280;9959;49.798;9.928;2023-10-08T00:16:12;100233.84;;;17.02;77.17
19624;BME280;9959;49.798;9.928;2023-10-08T00:18:44;100239.06;;;17.15;75.95
19624;BME280;9959;49.798;9.928;2023-10-08T00:21:20;100238.22;;;17.03;76.80
19624;BME280;9959;49.798;9.928;2023-10-08T00:23:55;100230.78;;;17.10;76.25
19624;BME280;9959;49.798;9.928;2023-10-08T00:26:27;100230.53;;;17.00;76.97
19624;BME280;9959;49.798;9.928;2023-10-08T00:29:03;100230.53;;;17.00;77.00
19624;BME280;9959;49.798;9.928;2023-10-08T00:31:43;100238.50;;;16.90;78.40
19624;BME280;9959;49.798;9.928;2023-10-08T00:34:16;100215.75;;;16.96;77.23
19624;BME280;9959;49.798;9.928;2023-10-08T00:36:47;100220.41;;;16.96;77.53
19624;BME280;9959;49.798;9.928;2023-10-08T00:39:15;100213.19;;;16.78;79.22
19624;BME280;9959;49.798;9.928;2023-10-08T00:41:51;100219.47;;;16.78;79.27
19624;BME280;9959;49.798;9.928;2023-10-08T00:44:26;100213.19;;;16.78;79.02
19624;BME280;9959;49.798;9.928;2023-10-08T00:46:57;100221.34;;;16.78;79.35
19624;BME280;9959;49.798;9.928;2023-10-08T00:49:28;100217.31;;;16.57;80.76
19624;BME280;9959;49.798;9.928;2023-10-08T00:52:06;100222.41;;;16.53;81.46
19624;BME280;9959;49.798;9.928;2023-10-08T00:54:39;100221.47;;;16.59;81.35
19624;BME280;9959;49.798;9.928;2023-10-08T00:57:20;100222.88;;;16.74;79.78
19624;BME280;9959;49.798;9.928;2023-10-08T00:59:48;100217.91;;;16.71;79.67
19624;BME280;9959;49.798;9.928;2023-10-08T01:02:21;100217.09;;;16.58;81.00
19624;BME280;9959;49.798;9.928;2023-10-08T01:04:54;100208.22;;;16.51;82.14
19624;BME280;9959;49.798;9.928;2023-10-08T01:07:23;100212.72;;;16.57;81.94
19624;BME280;9959;49.798;9.928;2023-10-08T01:09:52;100214.72;;;16.50;82.50
19624;BME280;9959;49.798;9.928;2023-10-08T01:12:26;100216.72;;;16.43;83.05
19624;BME280;9959;49.798;9.928;2023-10-08T01:14:55;100228.78;;;16.47;82.68
19624;BME280;9959;49.798;9.928;2023-10-08T01:17:23;100218.72;;;16.48;82.90
19624;BME280;9959;49.798;9.928;2023-10-08T01:19:58;100216.38;;;16.40;85.00
19624;BME280;9959;49.798;9.928;2023-10-08T01:22:57;100219.78;;;16.23;85.85
19624;BME280;9959;49.798;9.928;2023-10-08T01:25:24;100213.31;;;16.36;84.54
19624;BME280;9959;49.798;9.928;2023-10-08T01:27:56;100218.84;;;16.41;83.99
19624;BME280;9959;49.798;9.928;2023-10-08T01:30:27;100218.84;;;16.41;83.53
19624;BME280;9959;49.798;9.928;2023-10-08T01:33:01;100221.09;;;16.44;83.64
19624;BME280;9959;49.798;9.928;2023-10-08T01:35:29;100217.78;;;16.31;85.48
19624;BME280;9959;49.798;9.928;2023-10-08T01:37:58;100217.91;;;16.24;86.48
19624;BME280;9959;49.798;9.928;2023-10-08T01:40:26;100209.00;;;16.17;86.74
19624;BME280;9959;49.798;9.928;2023-10-08T01:42:56;100204.53;;;16.11;87.20
19624;BME280;9959;49.798;9.928;2023-10-08T01:45:35;100203.72;;;16.10;87.56
19624;BME280;9959;49.798;9.928;2023-10-08T01:48:03;100208.91;;;16.12;87.58
19624;BME280;9959;49.798;9.928;2023-10-08T01:50:31;100210.31;;;16.03;88.46
19624;BME280;9959;49.798;9.928;2023-10-08T01:53:01;100213.25;;;16.01;88.47
19624;BME280;9959;49.798;9.928;2023-10-08T01:55:28;100212.63;;;15.87;90.03
19624;BME280;9959;49.798;9.928;2023-10-08T01:58:00;100209.66;;;15.89;90.36
19624;BME280;9959;49.798;9.928;2023-10-08T02:00:27;100212.28;;;15.96;89.89
19624;BME280;9959;49.798;9.928;2023-10-08T02:02:54;100204.72;;;15.86;90.67
19624;BME280;9959;49.798;9.928;2023-10-08T02:05:21;100210.97;;;15.86;90.82
19624;BME280;9959;49.798;9.928;2023-10-08T02:07:49;100217.13;;;15.82;91.11
19624;BME280;9959;49.798;9.928;2023-10-08T02:10:17;100226.81;;;15.89;91.04
19624;BME280;9959;49.798;9.928;2023-10-08T02:12:45;100218.31;;;15.98;90.49
19624;BME280;9959;49.798;9.928;2023-10-08T02:15:12;100221.38;;;15.89;91.11
19624;BME280;9959;49.798;9.928;2023-10-08T02:17:39;100225.88;;;15.96;90.74
19624;BME280;9959;49.798;9.928;2023-10-08T02:20:06;100213.81;;;15.91;91.29
19624;BME280;9959;49.798;9.928;2023-10-08T02:22:34;100222.84;;;16.15;88.64
19624;BME280;9959;49.798;9.928;2023-10-08T02:25:01;100216.94;;;16.07;90.36
19624;BME280;9959;49.798;9.928;2023-10-08T02:27:29;100209.13;;;15.99;90.56
19624;BME280;9959;49.798;9.928;2023-10-08T02:29:55;100218.06;;;15.87;91.53
19624;BME280;9959;49.798;9.928;2023-10-08T02:32:22;100224.53;;;15.86;92.18
19624;BME280;9959;49.798;9.928;2023-10-08T02:34:50;100229.09;;;16.04;90.98
19624;BME280;9959;49.798;9.928;2023-10-08T02:37:19;100223.91;;;16.14;90.01
19624;BME280;9959;49.798;9.928;2023-10-08T02:39:46;100223.75;;;15.98;91.20
19624;BME280;9959;49.798;9.928;2023-10-08T02:42:13;100216.41;;;15.86;92.51
19624;BME280;9959;49.798;9.928;2023-10-08T02:44:40;100226.50;;;16.09;90.37
19624;BME280;9959;49.798;9.928;2023-10-08T02:47:11;100230.72;;;15.94;91.65
19624;BME280;9959;49.798;9.928;2023-10-08T02:49:39;100227.25;;;15.86;91.92
19624;BME280;9959;49.798;9.928;2023-10-08T02:52:07;100233.19;;;15.83;92.93
19624;BME280;9959;49.798;9.928;2023-10-08T02:54:38;100250.56;;;15.82;93.22
19624;BME280;9959;49.798;9.928;2023-10-08T02:57:05;100245.44;;;15.74;94.01
19624;BME280;9959;49.798;9.928;2023-10-08T02:59:37;100227.41;;;15.91;92.18
19624;BME280;9959;49.798;9.928;2023-10-08T03:02:12;100230.94;;;15.80;93.15
19624;BME280;9959;49.798;9.928;2023-10-08T03:04:47;100221.06;;;15.56;95.55
19624;BME280;9959;49.798;9.928;2023-10-08T03:07:15;100235.81;;;15.42;97.05
19624;BME280;9959;49.798;9.928;2023-10-08T03:09:53;100224.50;;;15.45;96.83
19624;BME280;9959;49.798;9.928;2023-10-08T03:12:33;100234.53;;;15.44;96.85
19624;BME280;9959;49.798;9.928;2023-10-08T03:15:00;100228.72;;;15.41;97.74
19624;BME280;9959;49.798;9.928;2023-10-08T03:17:48;100221.38;;;15.30;99.60
19624;BME280;9959;49.798;9.928;2023-10-08T03:20:16;100230.72;;;15.15;100.00
19624;BME280;9959;49.798;9.928;2023-10-08T03:23:16;100240.16;;;15.13;100.00
19624;BME280;9959;49.798;9.928;2023-10-08T03:25:57;100237.13;;;15.21;100.00
19624;BME280;9959;49.798;9.928;2023-10-08T03:28:37;100243.53;;;15.27;99.82
19624;BME280;9959;49.798;9.928;2023-10-08T03:31:04;100252.06;;;15.12;100.00
19624;BME280;9959;49.798;9.928;2023-10-08T03:33:33;100251.81;;;15.50;97.51
19624;BME280;9959;49.798;9.928;2023-10-08T03:36:05;100244.56;;;15.44;98.01
19624;BME280;9959;49.798;9.928;2023-10-08T03:38:37;100247.34;;;15.37;98.53
19624;BME280;9959;49.798;9.928;2023-10-08T03:41:26;100257.88;;;15.15;100.00
19624;BME280;9959;49.798;9.928;2023-10-08T03:43:59;100266.06;;;15.09;100.00
19624;BME280;9959;49.798;9.928;2023-10-08T03:46:33;100262.41;;;15.03;100.00
19624;BME280;9959;49.798;9.928;2023-10-08T03:49:10;100270.06;;;15.06;100.00
19624;BME280;9959;49.798;9.928;2023-10-08T03:51:50;100282.91;;;14.99;100.00
19624;BME280;9959;49.798;9.928;2023-10-08T03:54:21;100290.28;;;15.10;100.00
19624;BME280;9959;49.798;9.928;2023-10-08T03:57:02;100305.19;;;15.38;98.99
19624;BME280;9959;49.798;9.928;2023-10-08T03:59:31;100319.41;;;15.58;96.33
19624;BME280;9959;49.798;9.928;2023-10-08T04:02:02;100320.16;;;15.29;99.18
19624;BME280;9959;49.798;9.928;2023-10-08T04:04:48;100321.09;;;15.59;97.18
19624;BME280;9959;49.798;9.928;2023-10-08T04:07:17;100321.94;;;15.71;96.24
19624;BME280;9959;49.798;9.928;2023-10-08T04:10:00;100325.91;;;15.57;96.55
19624;BME280;9959;49.798;9.928;2023-10-08T04:12:48;100330.56;;;15.50;97.41
19624;BME280;9959;49.798;9.928;2023-10-08T04:15:18;100329.03;;;15.36;99.57
19624;BME280;9959;49.798;9.928;2023-10-08T04:17:46;100320.59;;;15.44;98.25
19624;BME280;9959;49.798;9.928;2023-10-08T04:20:18;100314.94;;;15.27;99.56
19624;BME280;9959;49.798;9.928;2023-10-08T04:23:08;100315.84;;;15.21;100.00
19624;BME280;9959;49.798;9.928;2023-10-08T04:25:45;100320.56;;;15.07;100.00
19624;BME280;9959;49.798;9.928;2023-10-08T04:28:14;100310.69;;;14.95;100.00
19624;BME280;9959;49.798;9.928;2023-10-08T04:30:47;100300.50;;;14.90;100.00
19624;BME280;9959;49.798;9.928;2023-10-08T04:33:14;100304.44;;;14.94;100.00
19624;BME280;9959;49.798;9.928;2023-10-08T04:35:43;100299.91;;;14.88;100.00
19624;BME280;9959;49.798;9.928;2023-10-08T04:38:20;100295.38;;;14.82;100.00
19624;BME280;9959;49.798;9.928;2023-10-08T04:40:50;100298.53;;;14.79;100.00
19624;BME280;9959;49.798;9.928;2023-10-08T04:43:24;100300.66;;;14.77;100.00
19624;BME280;9959;49.798;9.928;2023-10-08T04:45:58;100295.94;;;14.66;100.00
19624;BME280;9959;49.798;9.928;2023-10-08T04:48:26;100307.47;;;14.61;100.00
19624;BME280;9959;49.798;9.928;2023-10-08T04:50:59;100297.06;;;14.58;100.00
19624;BME280;9959;49.798;9.928;2023-10-08T04:53:30;100278.91;;;14.59;100.00
19624;BME280;9959;49.798;9.928;2023-10-08T04:55:59;100288.09;;;14.57;100.00
19624;BME280;9959;49.798;9.928;2023-10-08T04:58:34;100284.16;;;14.53;100.00
19624;BME280;9959;49.798;9.928;2023-10-08T05:01:04;100276.03;;;14.53;100.00
19624;BME280;9959;49.798;9.928;2023-10-08T05:03:51;100263.53;;;14.52;100.00
19624;BME280;9959;49.798;9.928;2023-10-08T05:06:41;100263.59;;;14.46;100.00
19624;BME280;9959;49.798;9.928;2023-10-08T05:09:12;100271.13;;;14.37;100.00
19624;BME280;9959;49.798;9.928;2023-10-08T05:11:47;100275.00;;;14.23;100.00
19624;BME280;9959;49.798;9.928;2023-10-08T05:14:15;100275.72;;;14.12;100.00
19624;BME280;9959;49.798;9.928;2023-10-08T05:17:04;100277.81;;;14.10;100.00
19624;BME280;9959;49.798;9.928;2023-10-08T05:19:39;100280.09;;;14.13;100.00
19624;BME280;9959;49.798;9.928;2023-10-08T05:22:14;100277.56;;;14.18;100.00
19624;BME280;9959;49.798;9.928;2023-10-08T05:25:11;100272.88;;;14.25;100.00
19624;BME280;9959;49.798;9.928;2023-10-08T05:27:45;100276.22;;;14.27;100.00
19624;BME280;9959;49.798;9.928;2023-10-08T05:30:20;100258.47;;;14.31;100.00
19624;BME280;9959;49.798;9.928;2023-10-08T05:33:20;100274.13;;;14.29;100.00
19624;BME280;9959;49.798;9.928;2023-10-08T05:36:07;100268.81;;;14.16;100.00
19624;BME280;9959;49.798;9.928;2023-10-08T05:38:44;100272.75;;;14.20;100.00
19624;BME280;9959;49.798;9.928;2023-10-08T05:41:27;100276.50;;;14.19;100.00
19624;BME280;9959;49.798;9.928;2023-10-08T05:43:55;100281.41;;;14.29;100.00
19624;BME280;9959;49.798;9.928;2023-10-08T05:46:41;100280.53;;;14.41;100.00
19624;BME280;9959;49.798;9.928;2023-10-08T05:49:23;100280.13;;;14.63;100.00
19624;BME280;9959;49.798;9.928;2023-10-08T05:52:05;100289.34;;;14.55;100.00
19624;BME280;9959;49.798;9.928;2023-10-08T05:54:32;100303.00;;;14.48;100.00
19624;BME280;9959;49.798;9.928;2023-10-08T05:57:07;100302.75;;;14.50;100.00
19624;BME280;9959;49.798;9.928;2023-10-08T05:59:46;100288.53;;;14.54;100.00
19624;BME280;9959;49.798;9.928;2023-10-08T06:02:41;100297.44;;;14.62;100.00
19624;BME280;9959;49.798;9.928;2023-10-08T06:05:11;100326.34;;;14.74;100.00
19624;BME280;9959;49.798;9.928;2023-10-08T06:10:26;100300.09;;;14.68;100.00
19624;BME280;9959;49.798;9.928;2023-10-08T06:13:05;100294.63;;;14.75;100.00
19624;BME280;9959;49.798;9.928;2023-10-08T06:15:51;100299.53;;;14.84;100.00
19624;BME280;9959;49.798;9.928;2023-10-08T06:18:27;100300.56;;;14.83;100.00
19624;BME280;9959;49.798;9.928;2023-10-08T06:20:56;100299.56;;;14.78;100.00
19624;BME280;9959;49.798;9.928;2023-10-08T06:23:27;100294.47;;;14.88;100.00
19624;BME280;9959;49.798;9.928;2023-10-08T06:25:56;100300.44;;;14.97;100.00
19624;BME280;9959;49.798;9.928;2023-10-08T06:28:32;100294.81;;;14.98;100.00
19624;BME280;9959;49.798;9.928;2023-10-08T06:31:03;100301.56;;;15.07;100.00
19624;BME280;9959;49.798;9.928;2023-10-08T06:33:33;100301.66;;;15.19;99.94
19624;BME280;9959;49.798;9.928;2023-10-08T06:36:00;100307.03;;;15.26;99.43
19624;BME280;9959;49.798;9.928;2023-10-08T06:38:43;100305.03;;;15.33;98.34
19624;BME280;9959;49.798;9.928;2023-10-08T06:41:12;100310.63;;;15.38;97.69
19624;BME280;9959;49.798;9.928;2023-10-08T06:43:49;100318.47;;;15.46;97.12
19624;BME280;9959;49.798;9.928;2023-10-08T06:46:20;100314.47;;;15.48;96.46
19624;BME280;9959;49.798;9.928;2023-10-08T06:48:48;100320.06;;;15.53;96.21
19624;BME280;9959;49.798;9.928;2023-10-08T06:51:16;100324.91;;;15.70;94.34
19624;BME280;9959;49.798;9.928;2023-10-08T06:53:47;100345.94;;;15.74;94.70
19624;BME280;9959;49.798;9.928;2023-10-08T06:56:15;100347.31;;;15.83;92.78
19624;BME280;9959;49.798;9.928;2023-10-08T06:58:43;100365.75;;;15.93;92.16
19624;BME280;9959;49.798;9.928;2023-10-08T07:01:20;100372.72;;;16.19;90.20
19624;BME280;9959;49.798;9.928;2023-10-08T07:03:54;100375.44;;;16.19;89.51
19624;BME280;9959;49.798;9.928;2023-10-08T07:06:30;100379.41;;;16.65;88.86
19624;BME280;9959;49.798;9.928;2023-10-08T07:09:04;100369.50;;;16.40;88.21
19624;BME280;9959;49.798;9.928;2023-10-08T07:11:33;100380.47;;;16.64;86.33
19624;BME280;9959;49.798;9.928;2023-10-08T07:14:06;100380.03;;;16.48;87.95
19624;BME280;9959;49.798;9.928;2023-10-08T07:16:33;100396.16;;;16.62;87.22
19624;BME280;9959;49.798;9.928;2023-10-08T07:19:01;100381.22;;;16.52;87.15
19624;BME280;9959;49.798;9.928;2023-10-08T07:21:30;100393.97;;;16.82;85.78
19624;BME280;9959;49.798;9.928;2023-10-08T07:24:06;100376.47;;;16.66;86.99
19624;BME280;9959;49.798;9.928;2023-10-08T07:26:42;100374.72;;;16.53;87.58
19624;BME280;9959;49.798;9.928;2023-10-08T07:29:15;100386.50;;;16.77;86.70
19624;BME280;9959;49.798;9.928;2023-10-08T07:31:46;100397.03;;;16.74;86.20
19624;BME280;9959;49.798;9.928;2023-10-08T07:34:16;100398.25;;;16.89;85.42
19624;BME280;9959;49.798;9.928;2023-10-08T07:36:46;100397.06;;;16.97;84.81
19624;BME280;9959;49.798;9.928;2023-10-08T07:39:14;100397.66;;;16.99;84.74
19624;BME280;9959;49.798;9.928;2023-10-08T07:42:04;100391.03;;;17.07;84.53
19624;BME280;9959;49.798;9.928;2023-10-08T07:44:35;100402.66;;;17.14;83.48
19624;BME280;9959;49.798;9.928;2023-10-08T07:47:08;100407.47;;;17.00;84.61
19624;BME280;9959;49.798;9.928;2023-10-08T07:49:38;100416.03;;;17.15;83.45
19624;BME280;9959;49.798;9.928;2023-10-08T07:52:06;100412.72;;;17.37;81.86
19624;BME280;9959;49.798;9.928;2023-10-08T07:54:33;100405.66;;;17.99;78.01
19624;BME280;9959;49.798;9.928;2023-10-08T07:57:03;100401.94;;;17.65;79.03
19624;BME280;9959;49.798;9.928;2023-10-08T07:59:40;100409.16;;;18.40;74.29
19624;BME280;9959;49.798;9.928;2023-10-08T08:02:16;100397.72;;;17.98;77.66
19624;BME280;9959;49.798;9.928;2023-10-08T08:04:45;100409.50;;;18.15;76.26
19624;BME280;9959;49.798;9.928;2023-10-08T08:07:13;100409.88;;;18.35;74.69
19624;BME280;9959;49.798;9.928;2023-10-08T08:09:44;100415.56;;;18.34;73.76
19624;BME280;9959;49.798;9.928;2023-10-08T08:12:41;100406.13;;;18.53;73.16
19624;BME280;9959;49.798;9.928;2023-10-08T08:15:09;100392.63;;;18.75;71.71
19624;BME280;9959;49.798;9.928;2023-10-08T08:17:42;100379.81;;;18.75;71.05
19624;BME280;9959;49.798;9.928;2023-10-08T08:20:10;100393.53;;;18.80;70.87
19624;BME280;9959;49.798;9.928;2023-10-08T08:22:49;100385.44;;;19.02;69.80
19624;BME280;9959;49.798;9.928;2023-10-08T08:25:21;100390.69;;;18.58;71.07
19624;BME280;9959;49.798;9.928;2023-10-08T08:28:01;100391.94;;;18.68;71.56
19624;BME280;9959;49.798;9.928;2023-10-08T08:30:28;100383.22;;;18.54;71.98
19624;BME280;9959;49.798;9.928;2023-10-08T08:32:55;100396.88;;;18.54;72.44
19624;BME280;9959;49.798;9.928;2023-10-08T08:35:23;100391.84;;;18.34;73.82
19624;BME280;9959;49.798;9.928;2023-10-08T08:37:51;100376.56;;;18.33;73.69
19624;BME280;9959;49.798;9.928;2023-10-08T08:40:18;100376.28;;;18.18;74.84
19624;BME280;9959;49.798;9.928;2023-10-08T08:42:48;100375.78;;;18.49;73.97
19624;BME280;9959;49.798;9.928;2023-10-08T08:45:22;100380.56;;;18.42;73.51
19624;BME280;9959;49.798;9.928;2023-10-08T08:47:53;100385.97;;;18.54;72.95
19624;BME280;9959;49.798;9.928;2023-10-08T08:50:21;100386.72;;;18.66;72.45
19624;BME280;9959;49.798;9.928;2023-10-08T08:52:49;100401.69;;;18.64;72.11
19624;BME280;9959;49.798;9.928;2023-10-08T08:55:18;100403.16;;;18.54;72.35
19624;BME280;9959;49.798;9.928;2023-10-08T08:57:50;100408.75;;;18.59;72.01
19624;BME280;9959;49.798;9.928;2023-10-08T09:00:18;100434.06;;;18.88;70.29
19624;BME280;9959;49.798;9.928;2023-10-08T09:02:46;100436.09;;;18.65;72.22
19624;BME280;9959;49.798;9.928;2023-10-08T09:05:16;100428.31;;;18.56;72.54
19624;BME280;9959;49.798;9.928;2023-10-08T09:08:00;100430.34;;;18.78;71.47
19624;BME280;9959;49.798;9.928;2023-10-08T09:10:32;100424.88;;;18.78;70.04
19624;BME280;9959;49.798;9.928;2023-10-08T09:13:22;100434.50;;;18.97;69.27
19624;BME280;9959;49.798;9.928;2023-10-08T09:15:51;100452.53;;;18.98;68.84
19624;BME280;9959;49.798;9.928;2023-10-08T09:18:22;100458.63;;;18.72;70.97
19624;BME280;9959;49.798;9.928;2023-10-08T09:20:51;100467.75;;;18.94;69.37
19624;BME280;9959;49.798;9.928;2023-10-08T09:23:18;100483.00;;;19.07;69.30
19624;BME280;9959;49.798;9.928;2023-10-08T09:25:49;100476.38;;;19.03;69.53
19624;BME280;9959;49.798;9.928;2023-10-08T09:28:31;100476.22;;;19.26;68.94
19624;BME280;9959;49.798;9.928;2023-10-08T09:31:02;100480.50;;;19.22;68.76
19624;BME280;9959;49.798;9.928;2023-10-08T09:33:32;100489.31;;;19.57;67.48
19624;BME280;9959;49.798;9.928;2023-10-08T09:35:59;100487.50;;;19.63;66.96
19624;BME280;9959;49.798;9.928;2023-10-08T09:38:34;100487.94;;;19.77;66.64
19624;BME280;9959;49.798;9.928;2023-10-08T09:41:02;100482.25;;;19.45;67.38
19624;BME280;9959;49.798;9.928;2023-10-08T09:43:30;100487.66;;;19.56;67.90
19624;BME280;9959;49.798;9.928;2023-10-08T09:46:11;100494.94;;;19.34;67.56
19624;BME280;9959;49.798;9.928;2023-10-08T09:48:41;100478.53;;;19.51;67.26
19624;BME280;9959;49.798;9.928;2023-10-08T09:51:13;100480.38;;;19.12;69.23
19624;BME280;9959;49.798;9.928;2023-10-08T09:53:58;100469.75;;;18.99;69.20
19624;BME280;9959;49.798;9.928;2023-10-08T09:56:31;100460.47;;;19.16;69.02
19624;BME280;9959;49.798;9.928;2023-10-08T09:59:00;100458.31;;;19.18;68.51
19624;BME280;9959;49.798;9.928;2023-10-08T10:01:28;100473.06;;;19.17;68.75
19624;BME280;9959;49.798;9.928;2023-10-08T10:03:55;100476.06;;;19.33;68.63
19624;BME280;9959;49.798;9.928;2023-10-08T10:06:28;100469.59;;;19.05;69.72
19624;BME280;9959;49.798;9.928;2023-10-08T10:08:56;100459.81;;;19.26;69.06
19624;BME280;9959;49.798;9.928;2023-10-08T10:11:30;100465.28;;;19.26;69.04
19624;BME280;9959;49.798;9.928;2023-10-08T10:13:59;100459.31;;;19.29;69.05
19624;BME280;9959;49.798;9.928;2023-10-08T10:16:27;100454.69;;;19.30;68.89
19624;BME280;9959;49.798;9.928;2023-10-08T10:18:56;100447.91;;;19.15;69.49
19624;BME280;9959;49.798;9.928;2023-10-08T10:21:30;100457.16;;;18.81;70.59
19624;BME280;9959;49.798;9.928;2023-10-08T10:23:58;100449.22;;;18.96;70.50
19624;BME280;9959;49.798;9.928;2023-10-08T10:26:31;100452.72;;;19.08;70.26
19624;BME280;9959;49.798;9.928;2023-10-08T10:31:44;100471.41;;;19.16;69.61
19624;BME280;9959;49.798;9.928;2023-10-08T10:34:16;100473.88;;;19.01;70.48
19624;BME280;9959;49.798;9.928;2023-10-08T10:36:45;100470.75;;;19.26;69.82
19624;BME280;9959;49.798;9.928;2023-10-08T10:39:17;100482.50;;;19.26;69.44
19624;BME280;9959;49.798;9.928;2023-10-08T10:41:46;100487.97;;;19.26;69.06
19624;BME280;9959;49.798;9.928;2023-10-08T10:44:15;100502.53;;;19.49;69.35
19624;BME280;9959;49.798;9.928;2023-10-08T10:46:46;100503.28;;;19.44;68.83
19624;BME280;9959;49.798;9.928;2023-10-08T10:49:39;100504.19;;;19.50;68.08
19624;BME280;9959;49.798;9.928;2023-10-08T10:52:24;100494.13;;;19.67;68.27
19624;BME280;9959;49.798;9.928;2023-10-08T10:55:12;100503.19;;;19.89;66.99
19624;BME280;9959;49.798;9.928;2023-10-08T10:57:48;100491.06;;;20.46;64.76
19624;BME280;9959;49.798;9.928;2023-10-08T11:00:31;100489.78;;;20.32;65.58
19624;BME280;9959;49.798;9.928;2023-10-08T11:03:03;100499.06;;;19.70;67.69
19624;BME280;9959;49.798;9.928;2023-10-08T11:05:38;100506.09;;;19.83;66.63
19624;BME280;9959;49.798;9.928;2023-10-08T11:08:07;100496.31;;;19.87;66.78
19624;BME280;9959;49.798;9.928;2023-10-08T11:10:38;100502.06;;;19.69;67.07
19624;BME280;9959;49.798;9.928;2023-10-08T11:13:10;100498.47;;;20.07;66.64
19624;BME280;9959;49.798;9.928;2023-10-08T11:15:46;100502.19;;;19.96;67.04
19624;BME280;9959;49.798;9.928;2023-10-08T11:18:19;100514.81;;;20.02;66.46
19624;BME280;9959;49.798;9.928;2023-10-08T11:20:49;100516.50;;;20.24;65.49
19624;BME280;9959;49.798;9.928;2023-10-08T11:23:34;100525.66;;;20.35;64.75
19624;BME280;9959;49.798;9.928;2023-10-08T11:26:05;100522.78;;;20.25;64.84
19624;BME280;9959;49.798;9.928;2023-10-08T11:28:37;100527.41;;;20.41;65.33
19624;BME280;9959;49.798;9.928;2023-10-08T11:31:15;100532.81;;;20.58;64.58
19624;BME280;9959;49.798;9.928;2023-10-08T11:33:47;100525.50;;;20.20;65.80
19624;BME280;9959;49.798;9.928;2023-10-08T11:36:23;100527.75;;;20.45;65.43
19624;BME280;9959;49.798;9.928;2023-10-08T11:39:11;100528.28;;;20.69;64.14
19624;BME280;9959;49.798;9.928;2023-10-08T11:42:00;100530.59;;;20.82;63.59
19624;BME280;9959;49.798;9.928;2023-10-08T11:44:33;100509.50;;;21.04;63.09
19624;BME280;9959;49.798;9.928;2023-10-08T11:47:04;100509.19;;;20.74;63.78
19624;BME280;9959;49.798;9.928;2023-10-08T11:49:40;100502.47;;;20.38;66.41
19624;BME280;9959;49.798;9.928;2023-10-08T11:52:14;100488.63;;;20.71;64.42
19624;BME280;9959;49.798;9.928;2023-10-08T11:54:49;100491.34;;;20.98;63.63
19624;BME280;9959;49.798;9.928;2023-10-08T11:57:18;100488.69;;;21.08;63.18
19624;BME280;9959;49.798;9.928;2023-10-08T11:59:49;100472.78;;;20.29;67.08
19624;BME280;9959;49.798;9.928;2023-10-08T12:02:23;100470.69;;;21.17;64.42
19624;BME280;9959;49.798;9.928;2023-10-08T12:04:51;100460.56;;;21.50;62.78
19624;BME280;9959;49.798;9.928;2023-10-08T12:07:19;100468.06;;;21.27;63.25
19624;BME280;9959;49.798;9.928;2023-10-08T12:09:46;100461.03;;;21.42;63.00
19624;BME280;9959;49.798;9.928;2023-10-08T12:12:16;100456.16;;;21.49;62.63
19624;BME280;9959;49.798;9.928;2023-10-08T12:14:45;100462.25;;;21.56;62.76
19624;BME280;9959;49.798;9.928;2023-10-08T12:17:14;100463.06;;;22.04;60.90
19624;BME280;9959;49.798;9.928;2023-10-08T12:19:44;100464.72;;;21.57;62.13
19624;BME280;9959;49.798;9.928;2023-10-08T12:22:12;100474.34;;;21.60;61.85
19624;BME280;9959;49.798;9.928;2023-10-08T12:24:46;100480.06;;;21.21;63.86
19624;BME280;9959;49.798;9.928;2023-10-08T12:27:13;100475.31;;;21.44;63.20
19624;BME280;9959;49.798;9.928;2023-10-08T12:29:44;100482.97;;;21.42;62.63
19624;BME280;9959;49.798;9.928;2023-10-08T12:32:11;100493.06;;;21.09;64.82
19624;BME280;9959;49.798;9.928;2023-10-08T12:34:44;100492.94;;;21.21;64.52
19624;BME280;9959;49.798;9.928;2023-10-08T12:37:12;100491.41;;;21.03;65.03
19624;BME280;9959;49.798;9.928;2023-10-08T12:39:41;100491.50;;;20.59;66.81
19624;BME280;9959;49.798;9.928;2023-10-08T12:42:23;100500.41;;;20.72;66.46
19624;BME280;9959;49.798;9.928;2023-10-08T12:44:52;100508.09;;;20.09;69.09
19624;BME280;9959;49.798;9.928;2023-10-08T12:47:19;100495.31;;;20.15;70.11
19624;BME280;9959;49.798;9.928;2023-10-08T12:49:46;100480.44;;;20.49;67.70
19624;BME280;9959;49.798;9.928;2023-10-08T12:52:13;100480.59;;;20.65;67.78
19624;BME280;9959;49.798;9.928;2023-10-08T12:54:41;100484.22;;;20.97;66.37
19624;BME280;9959;49.798;9.928;2023-10-08T12:57:12;100490.97;;;20.89;66.68
19624;BME280;9959;49.798;9.928;2023-10-08T12:59:43;100484.69;;;20.89;65.96
19624;BME280;9959;49.798;9.928;2023-10-08T13:02:15;100489.72;;;21.66;62.95
19624;BME280;9959;49.798;9.928;2023-10-08T13:04:43;100484.91;;;21.88;62.01
19624;BME280;9959;49.798;9.928;2023-10-08T13:07:12;100500.91;;;21.22;64.84
19624;BME280;9959;49.798;9.928;2023-10-08T13:09:41;100492.56;;;20.58;65.98
19624;BME280;9959;49.798;9.928;2023-10-08T13:12:09;100496.56;;;21.26;65.29
19624;BME280;9959;49.798;9.928;2023-10-08T13:14:37;100486.34;;;21.54;63.40
19624;BME280;9959;49.798;9.928;2023-10-08T13:17:04;100490.56;;;21.35;63.66
19624;BME280;9959;49.798;9.928;2023-10-08T13:19:31;100491.88;;;21.64;62.80
19624;BME280;9959;49.798;9.928;2023-10-08T13:22:01;100487.94;;;21.45;63.40
19624;BME280;9959;49.798;9.928;2023-10-08T13:24:28;100479.59;;;21.30;63.85
19624;BME280;9959;49.798;9.928;2023-10-08T13:26:56;100479.13;;;22.37;60.16
19624;BME280;9959;49.798;9.928;2023-10-08T13:29:25;100487.53;;;23.34;56.56
19624;BME280;9959;49.798;9.928;2023-10-08T13:32:00;100481.75;;;24.55;52.54